Shine, Washington
Current Conditions -  °F | °C
As of 10:53 AM on Tuesday 21 Oct 2014 (Local Time) from KPAE Reporting Station
Light Rain Light Rain  
Wind Chill: 14°   Ceiling: 9500
Heat Index: 14°   Visibility: 10mi
Dew Point: 11°   Wind: 18mph
Humidity: 81%   Direction: 190°S
Pressure: 29.91"   Gusts: 24mph
Location:  47.9628°N, 122.777°W
Report Text: KPAE 211753Z 19016G21KT 10SM -RA FEW065 BKN095 OVC120 14/11 A2991 RMK AO2 RAB41 SLP127 P0000 60003 T01390106 10139 20117 53009
Loading
Personal Weather Stations






























Interactive Weather Map
Tropical Storm Tracking
New forecast layout! Learn more

10-Day Weather Forecast

Advertisements
Track Severe Weather on mobile